Josephine Prima — CQDX — position and weather

sailwx.info

Track history (hours):
 
Tides and Currents Weather Stations Pressure Air Temp Water Temp Dewpoint Dewpoint Depression Visibility Wind Speed Wind Dir Waves Ship Positions

Josephine Prima

Last reported at 2017-Nov-23 21:31 UTC. Time now 2017-Nov-24 11:28 UTC.
Position N 40°49' E 014°16'.

Length 106 m; draft 4.4 m.

Type: Cargo ship. MMSI: 255805800.

Date/timePositionNaut miles runAvg speedWind from/ knotsBaromVisibWave heightAir tempDewpointWater temp
2017-Nov-23 21:31N 40°49' E 014°16'0 0.0
2017-Nov-23 21:31N 40°49' E 014°16'2 2.7
2017-Nov-23 20:45N 40°47' E 014°15'2 6.2
2017-Nov-23 20:30N 40°46' E 014°14'510.6
2017-Nov-23 20:00N 40°41' E 014°13'510.7
2017-Nov-23 19:30N 40°36' E 014°10'13110.8
2017-Nov-23 07:27N 38°39' E 015°27'510.3
2017-Nov-23 07:00N 38°35' E 015°29'510.7
2017-Nov-23 06:30N 38°31' E 015°33'510.7
2017-Nov-23 06:00N 38°26' E 015°36'510.7
2017-Nov-23 05:30N 38°21' E 015°39'6 9.9
2017-Nov-23 04:56N 38°16' E 015°41'510.8
2017-Nov-23 04:30N 38°12' E 015°37'510.2
2017-Nov-23 04:00N 38°07' E 015°36'510.8
2017-Nov-23 03:30N 38°02' E 015°36'610.7
2017-Nov-23 02:58N 37°56' E 015°38'510.2
2017-Nov-23 02:30N 37°54' E 015°43'610.8
2017-Nov-23 01:56N 37°52' E 015°51'  
Track history (hours):
 
Tides and Currents Weather Stations Pressure Air Temp Water Temp Dewpoint Dewpoint Depression Visibility Wind Speed Wind Dir Waves Ship Positions

Josephine Prima

Last reported at 2017-Nov-23 21:31 UTC. Time now 2017-Nov-24 11:28 UTC.
Position N 40°49' E 014°16'.

Length 106 m; draft 4.4 m.

Type: Cargo ship. MMSI: 255805800.

Date/timePositionNaut miles runAvg speedWind from/ knotsBaromVisibWave heightAir tempDewpointWater temp
2017-Nov-23 21:31N 40°49' E 014°16'0 0.0
2017-Nov-23 21:31N 40°49' E 014°16'2 2.7
2017-Nov-23 20:45N 40°47' E 014°15'2 6.2
2017-Nov-23 20:30N 40°46' E 014°14'510.6
2017-Nov-23 20:00N 40°41' E 014°13'510.7
2017-Nov-23 19:30N 40°36' E 014°10'13110.8
2017-Nov-23 07:27N 38°39' E 015°27'510.3
2017-Nov-23 07:00N 38°35' E 015°29'510.7
2017-Nov-23 06:30N 38°31' E 015°33'510.7
2017-Nov-23 06:00N 38°26' E 015°36'510.7
2017-Nov-23 05:30N 38°21' E 015°39'6 9.9
2017-Nov-23 04:56N 38°16' E 015°41'510.8
2017-Nov-23 04:30N 38°12' E 015°37'510.2
2017-Nov-23 04:00N 38°07' E 015°36'510.8
2017-Nov-23 03:30N 38°02' E 015°36'610.7
2017-Nov-23 02:58N 37°56' E 015°38'510.2
2017-Nov-23 02:30N 37°54' E 015°43'610.8
2017-Nov-23 01:56N 37°52' E 015°51'  

Dump ship's entire track history